EIKY

Kerry Airport

Killarney, Ireland
METAR EIKY 181830Z 23016KT 9999 FEW038 15/09 Q1002
Observed Flight Rules
Sep-18 @ 18:30 UTC (11 hours ago) Visual Flight Rules
Wind Visibility Clouds
230° at 16 knots 10,000+ meters
  • Few at 3,800' AGL
Temperatures Readings
Current 15°C / 59°F
Dewpoint 9°C / 48°F
Humidity 68%
Altimeter 29.59" Hg
Pressure 1002 hPa
Elevation 34
METAR EIKY 181830Z 23016KT 9999 FEW038 15/09 Q1002
Observed Flight Rules
Sep-18 @ 18:30 UTC
(11 hours ago)
VFR
Wind Visibility
230° at 16 knots 10,000+ meters
Clouds
  • Few at 3,800' AGL
Temperature Dewpoint
15°C / 59°F 9°C / 48°F
Humidity Altimeter Pressure
68% 29.59" Hg 1002 hPa